createdAt,value
2023-01-28T00:00:06.860Z,9.89
2023-01-28T00:02:36.733Z,9.83
2023-01-28T00:05:06.653Z,9.76
2023-01-28T00:07:35.087Z,9.74
2023-01-28T00:10:03.837Z,9.74
2023-01-28T00:12:32.163Z,9.69
2023-01-28T00:15:00.700Z,9.66
2023-01-28T00:17:30.979Z,9.62
2023-01-28T00:19:59.415Z,9.63
2023-01-28T00:22:27.810Z,9.62
2023-01-28T00:24:56.189Z,9.62
2023-01-28T00:27:25.134Z,9.61
2023-01-28T00:29:53.945Z,9.61
2023-01-28T00:32:22.285Z,9.62
2023-01-28T00:34:52.551Z,9.60
2023-01-28T00:37:20.975Z,9.55
2023-01-28T00:39:49.836Z,9.50
2023-01-28T00:42:18.283Z,9.46
2023-01-28T00:44:46.645Z,9.45
2023-01-28T00:47:15.062Z,9.46
2023-01-28T00:49:43.585Z,9.46
2023-01-28T00:52:13.388Z,9.46
2023-01-28T00:54:42.180Z,9.44
2023-01-28T00:57:10.641Z,9.43
2023-01-28T00:59:39.035Z,9.41
2023-01-28T01:02:13.273Z,9.42
2023-01-28T01:04:54.912Z,9.42
2023-01-28T01:07:34.901Z,9.43
2023-01-28T01:10:03.879Z,9.42
2023-01-28T01:12:32.561Z,9.42
2023-01-28T01:15:03.768Z,9.38
2023-01-28T01:17:33.141Z,9.31
2023-01-28T01:20:01.844Z,9.31
2023-01-28T01:22:35.055Z,9.33
2023-01-28T01:25:05.057Z,9.35
2023-01-28T01:27:34.131Z,9.42
2023-01-28T01:30:02.944Z,9.45
2023-01-28T01:32:32.832Z,9.48
2023-01-28T01:35:01.645Z,9.52
2023-01-28T01:37:31.619Z,9.55
2023-01-28T01:40:02.030Z,9.55
2023-01-28T01:42:30.879Z,9.56
2023-01-28T01:45:02.842Z,9.57
2023-01-28T01:47:40.813Z,9.55
2023-01-28T01:50:20.239Z,9.52
2023-01-28T01:52:54.922Z,9.48
2023-01-28T01:55:27.599Z,9.44
2023-01-28T01:57:58.424Z,9.37
2023-01-28T02:00:27.118Z,9.31
2023-01-28T02:02:56.782Z,9.29
2023-01-28T02:05:27.136Z,9.26
2023-01-28T02:08:21.069Z,9.25
2023-01-28T02:10:52.153Z,9.24
2023-01-28T02:13:26.452Z,9.26
2023-01-28T02:15:56.497Z,9.25
2023-01-28T02:18:25.214Z,9.25
2023-01-28T02:21:21.967Z,9.23
2023-01-28T02:24:20.017Z,9.22
2023-01-28T02:27:04.847Z,9.24
2023-01-28T02:29:45.547Z,9.28
2023-01-28T02:32:19.527Z,9.29
2023-01-28T02:34:52.796Z,9.28
2023-01-28T02:37:27.810Z,9.24
2023-01-28T02:40:02.452Z,9.21
2023-01-28T02:42:36.458Z,9.17
2023-01-28T02:45:17.969Z,9.14
2023-01-28T02:48:00.707Z,9.14
2023-01-28T02:50:47.488Z,9.14
2023-01-28T02:53:44.154Z,9.16
2023-01-28T02:56:29.433Z,9.15
2023-01-28T02:59:24.959Z,9.17
2023-01-28T03:02:02.561Z,9.17
2023-01-28T03:04:37.079Z,9.19
2023-01-28T03:07:08.791Z,9.19
2023-01-28T03:09:39.989Z,9.17
2023-01-28T03:12:30.473Z,9.16
2023-01-28T03:15:21.804Z,9.10
2023-01-28T03:18:15.687Z,9.08
2023-01-28T03:21:07.561Z,9.04
2023-01-28T03:24:01.538Z,9.01
2023-01-28T03:26:50.681Z,8.99
2023-01-28T03:29:39.975Z,9.00
2023-01-28T03:32:29.795Z,8.95
2023-01-28T03:35:18.442Z,8.97
2023-01-28T03:37:47.406Z,8.99
2023-01-28T03:40:22.114Z,9.01
2023-01-28T03:42:52.330Z,9.05
2023-01-28T03:45:35.879Z,9.06
2023-01-28T03:48:06.912Z,9.08
2023-01-28T03:50:36.746Z,9.08
2023-01-28T03:53:16.415Z,9.07
2023-01-28T03:55:51.889Z,9.06
2023-01-28T03:58:22.873Z,9.05
2023-01-28T04:00:52.952Z,9.05
2023-01-28T04:03:23.177Z,9.06
2023-01-28T04:06:09.940Z,9.03
2023-01-28T04:08:54.612Z,9.05
2023-01-28T04:11:32.419Z,9.07
2023-01-28T04:14:04.321Z,9.08
2023-01-28T04:16:43.490Z,9.06
2023-01-28T04:19:12.817Z,9.06
2023-01-28T04:21:42.667Z,9.04
2023-01-28T04:24:11.408Z,9.02
2023-01-28T04:26:41.419Z,9.02
2023-01-28T04:29:10.196Z,9.03
2023-01-28T04:31:39.486Z,9.05
2023-01-28T04:34:35.643Z,9.02
2023-01-28T04:37:18.318Z,9.01
2023-01-28T04:40:06.848Z,8.98
2023-01-28T04:42:56.281Z,8.96
2023-01-28T04:45:38.077Z,8.93
2023-01-28T04:48:16.915Z,8.89
2023-01-28T04:50:57.228Z,8.86
2023-01-28T04:53:37.917Z,8.83
2023-01-28T04:56:24.790Z,8.83
2023-01-28T04:58:53.385Z,8.87
2023-01-28T05:01:21.822Z,8.91
2023-01-28T05:03:50.746Z,8.93
2023-01-28T05:06:28.240Z,8.94
2023-01-28T05:09:00.484Z,8.97
2023-01-28T05:11:29.085Z,8.99
2023-01-28T05:14:02.469Z,9.03
2023-01-28T05:16:36.724Z,9.08
2023-01-28T05:19:05.797Z,9.08
2023-01-28T05:21:37.945Z,9.11
2023-01-28T05:24:13.636Z,9.12
2023-01-28T05:26:42.177Z,9.12
2023-01-28T05:29:10.969Z,9.11
2023-01-28T05:31:41.050Z,9.13
2023-01-28T05:34:09.559Z,9.13
2023-01-28T05:36:38.196Z,9.14
2023-01-28T05:39:20.904Z,9.14
2023-01-28T05:41:49.491Z,9.14
2023-01-28T05:44:18.185Z,9.16
2023-01-28T05:47:12.600Z,9.15
2023-01-28T05:50:00.921Z,9.11
2023-01-28T05:52:40.830Z,9.11
2023-01-28T05:55:20.707Z,9.12
2023-01-28T05:57:50.156Z,9.14
2023-01-28T06:00:21.846Z,9.13
2023-01-28T06:02:53.264Z,9.13
2023-01-28T06:05:22.716Z,9.12
2023-01-28T06:07:51.562Z,9.13
2023-01-28T06:10:21.432Z,9.12
2023-01-28T06:12:50.714Z,9.09
2023-01-28T06:15:37.937Z,9.01
2023-01-28T06:18:26.717Z,8.93
2023-01-28T06:20:55.927Z,8.92
2023-01-28T06:23:24.270Z,8.94
2023-01-28T06:25:56.881Z,8.98
2023-01-28T06:28:26.759Z,9.00
2023-01-28T06:30:55.818Z,9.01
2023-01-28T06:33:24.579Z,9.02
2023-01-28T06:35:53.143Z,9.04
2023-01-28T06:38:21.988Z,9.07
2023-01-28T06:40:55.799Z,9.10
2023-01-28T06:43:27.755Z,9.09
2023-01-28T06:45:56.609Z,9.09
2023-01-28T06:48:25.865Z,9.09
2023-01-28T06:50:55.013Z,9.09
2023-01-28T06:53:23.686Z,9.10
2023-01-28T06:55:52.176Z,9.12
2023-01-28T06:58:20.616Z,9.13
2023-01-28T07:00:50.645Z,9.14
2023-01-28T07:03:19.130Z,9.17
2023-01-28T07:05:47.692Z,9.19
2023-01-28T07:08:16.256Z,9.19
2023-01-28T07:10:45.637Z,9.21
2023-01-28T07:13:14.377Z,9.22
2023-01-28T07:15:43.433Z,9.22
2023-01-28T07:18:13.675Z,9.22
2023-01-28T07:20:42.462Z,9.21
2023-01-28T07:23:10.932Z,9.20
2023-01-28T07:25:39.331Z,9.21
2023-01-28T07:28:08.620Z,9.22
2023-01-28T07:30:37.186Z,9.22
2023-01-28T07:33:05.609Z,9.24
2023-01-28T07:35:35.965Z,9.22
2023-01-28T07:38:04.439Z,9.19
2023-01-28T07:40:32.962Z,9.19
2023-01-28T07:43:01.341Z,9.19
2023-01-28T07:45:38.318Z,9.17
2023-01-28T07:48:09.757Z,9.15
2023-01-28T07:50:40.430Z,9.14
2023-01-28T07:53:11.884Z,9.12
2023-01-28T07:55:40.707Z,9.07
2023-01-28T07:58:12.606Z,9.04
2023-01-28T08:00:41.468Z,9.03
2023-01-28T08:03:16.120Z,9.06
2023-01-28T08:05:48.278Z,9.07
2023-01-28T08:08:17.233Z,9.06
2023-01-28T08:10:46.049Z,9.06
2023-01-28T08:13:16.276Z,9.05
2023-01-28T08:15:45.273Z,9.03
2023-01-28T08:18:15.776Z,9.03
2023-01-28T08:20:47.712Z,9.05
2023-01-28T08:23:18.851Z,9.06
2023-01-28T08:25:48.608Z,9.06
2023-01-28T08:28:18.673Z,9.05
2023-01-28T08:30:48.047Z,9.02
2023-01-28T08:33:18.521Z,9.06
2023-01-28T08:35:48.513Z,9.05
2023-01-28T08:38:20.421Z,9.08
2023-01-28T08:40:50.555Z,9.10
2023-01-28T08:43:18.874Z,9.10
2023-01-28T08:45:47.298Z,9.11
2023-01-28T08:48:18.879Z,9.13
2023-01-28T08:50:50.809Z,9.13
2023-01-28T08:53:21.522Z,9.12
2023-01-28T08:55:49.972Z,9.11
2023-01-28T08:58:19.820Z,9.07
2023-01-28T09:00:49.001Z,8.97
2023-01-28T09:03:18.853Z,8.87
2023-01-28T09:05:50.250Z,8.79
2023-01-28T09:08:18.990Z,8.77
2023-01-28T09:10:47.429Z,8.74
2023-01-28T09:13:17.363Z,8.70
2023-01-28T09:15:45.951Z,8.68
2023-01-28T09:18:14.517Z,8.66
2023-01-28T09:20:43.362Z,8.66
2023-01-28T09:23:13.841Z,8.68
2023-01-28T09:25:42.514Z,8.69
2023-01-28T09:28:10.938Z,8.68
2023-01-28T09:30:39.806Z,8.69
2023-01-28T09:33:09.690Z,8.72
2023-01-28T09:35:38.342Z,8.74
2023-01-28T09:38:06.744Z,8.78
2023-01-28T09:40:42.707Z,8.81
2023-01-28T09:43:49.638Z,8.84
2023-01-28T09:46:19.570Z,8.84
2023-01-28T09:48:51.130Z,8.87
2023-01-28T09:51:33.815Z,8.87
2023-01-28T09:54:07.193Z,8.82
2023-01-28T09:56:43.110Z,8.79
2023-01-28T09:59:20.199Z,8.68
2023-01-28T10:01:57.351Z,8.57
2023-01-28T10:04:43.330Z,8.52
2023-01-28T10:07:25.229Z,8.49
2023-01-28T10:10:00.480Z,8.46
2023-01-28T10:12:43.922Z,8.47
2023-01-28T10:15:47.339Z,8.51
2023-01-28T10:18:17.980Z,8.54
2023-01-28T10:20:50.893Z,8.60
2023-01-28T10:23:28.128Z,8.62
2023-01-28T10:26:00.851Z,8.61
2023-01-28T10:28:32.625Z,8.59
2023-01-28T10:31:01.081Z,8.57
2023-01-28T10:33:37.373Z,8.53
2023-01-28T10:36:07.291Z,8.52
2023-01-28T10:38:36.770Z,8.50
2023-01-28T10:41:08.851Z,8.44
2023-01-28T10:43:41.815Z,8.44
2023-01-28T10:46:15.902Z,8.43
2023-01-28T10:48:54.047Z,8.40
2023-01-28T10:51:33.826Z,8.39
2023-01-28T10:54:03.009Z,8.39
2023-01-28T10:56:35.624Z,8.43
2023-01-28T10:59:08.600Z,8.44
2023-01-28T11:01:46.230Z,8.41
2023-01-28T11:04:20.824Z,8.42
2023-01-28T11:07:02.294Z,8.49
2023-01-28T11:09:32.176Z,8.53
2023-01-28T11:12:13.050Z,8.59
2023-01-28T11:14:51.839Z,8.64
2023-01-28T11:17:24.575Z,8.63
2023-01-28T11:19:54.570Z,8.63
2023-01-28T11:22:32.527Z,8.63
2023-01-28T11:25:02.307Z,8.63
2023-01-28T11:27:33.256Z,8.65
2023-01-28T11:30:04.842Z,8.67
2023-01-28T11:32:33.689Z,8.69
2023-01-28T11:35:02.252Z,8.69
2023-01-28T11:37:32.402Z,8.71
2023-01-28T11:40:20.001Z,8.73
2023-01-28T11:42:51.785Z,8.75
2023-01-28T11:45:29.907Z,8.78
2023-01-28T11:48:17.783Z,8.74
2023-01-28T11:50:52.668Z,8.70
2023-01-28T11:53:46.979Z,8.70
2023-01-28T11:56:31.530Z,8.71
2023-01-28T11:59:33.155Z,8.72
2023-01-28T12:02:19.859Z,8.72
2023-01-28T12:05:10.816Z,8.67
2023-01-28T12:07:51.960Z,8.62
2023-01-28T12:10:30.853Z,8.52
2023-01-28T12:13:14.267Z,8.44
2023-01-28T12:16:34.072Z,8.38
2023-01-28T12:19:36.184Z,8.32
2023-01-28T12:22:29.940Z,8.34
2023-01-28T12:25:20.498Z,8.37
2023-01-28T12:27:54.614Z,8.41
2023-01-28T12:30:36.458Z,8.45
2023-01-28T12:33:22.230Z,8.50
2023-01-28T12:36:07.388Z,8.50
2023-01-28T12:38:50.366Z,8.51
2023-01-28T12:41:23.629Z,8.54
2023-01-28T12:43:59.129Z,8.57
2023-01-28T12:46:39.632Z,8.65
2023-01-28T12:49:15.530Z,8.72
2023-01-28T12:51:58.928Z,8.77
2023-01-28T12:54:35.372Z,8.81
2023-01-28T12:57:04.762Z,8.89
2023-01-28T12:59:41.188Z,8.93
2023-01-28T13:02:24.379Z,8.96
2023-01-28T13:05:01.399Z,9.00
2023-01-28T13:07:38.609Z,9.04
2023-01-28T13:10:15.167Z,9.08
2023-01-28T13:12:44.597Z,9.08
2023-01-28T13:15:16.081Z,9.09
2023-01-28T13:17:56.887Z,9.11
2023-01-28T13:20:38.772Z,9.15
2023-01-28T13:23:25.416Z,9.14
2023-01-28T13:25:56.291Z,9.16
2023-01-28T13:28:31.750Z,9.15
2023-01-28T13:31:08.305Z,9.13
2023-01-28T13:33:39.776Z,9.11
2023-01-28T13:36:26.293Z,9.14
2023-01-28T13:39:19.441Z,9.12
2023-01-28T13:41:50.529Z,9.09
2023-01-28T13:44:21.767Z,9.10
2023-01-28T13:46:50.916Z,9.08
2023-01-28T13:49:28.596Z,9.05
2023-01-28T13:52:08.871Z,9.01
2023-01-28T13:54:43.242Z,8.96
2023-01-28T13:57:48.742Z,8.96
2023-01-28T14:00:27.858Z,8.98
2023-01-28T14:03:56.034Z,8.97
2023-01-28T14:07:05.554Z,8.88
2023-01-28T14:10:13.361Z,8.81
2023-01-28T14:13:06.727Z,8.78
2023-01-28T14:16:14.732Z,8.79
2023-01-28T14:18:45.509Z,8.82
2023-01-28T14:21:18.400Z,8.84
2023-01-28T14:23:49.846Z,8.86
2023-01-28T14:26:33.342Z,8.90
2023-01-28T14:29:19.707Z,8.94
2023-01-28T14:31:48.888Z,8.94
2023-01-28T14:34:25.097Z,8.96
2023-01-28T14:36:59.684Z,8.99
2023-01-28T14:39:30.308Z,9.03
2023-01-28T14:42:04.551Z,9.08
2023-01-28T14:44:36.242Z,9.11
2023-01-28T14:47:34.178Z,9.16
2023-01-28T14:50:22.508Z,9.19
2023-01-28T14:53:26.498Z,9.20
2023-01-28T14:56:02.915Z,9.22
2023-01-28T14:58:39.986Z,9.21
2023-01-28T15:01:23.163Z,9.22
2023-01-28T15:03:52.140Z,9.21
2023-01-28T15:06:24.691Z,9.17
2023-01-28T15:08:53.730Z,9.16
2023-01-28T15:11:25.254Z,9.13
2023-01-28T15:14:00.099Z,9.15
2023-01-28T15:16:31.718Z,9.13
2023-01-28T15:19:03.139Z,9.13
2023-01-28T15:21:32.054Z,9.12
2023-01-28T15:24:03.235Z,9.16
2023-01-28T15:26:35.082Z,9.17
2023-01-28T15:29:05.003Z,9.17
2023-01-28T15:31:35.775Z,9.13
2023-01-28T15:34:13.416Z,9.12
2023-01-28T15:36:43.600Z,9.10
2023-01-28T15:39:16.659Z,9.10
2023-01-28T15:41:49.556Z,9.08
2023-01-28T15:44:29.044Z,9.06
2023-01-28T15:46:58.547Z,9.04
2023-01-28T15:49:32.768Z,9.03
2023-01-28T15:52:01.956Z,8.99
2023-01-28T15:54:31.430Z,8.96
2023-01-28T15:57:11.815Z,8.95
2023-01-28T15:59:43.986Z,8.96
2023-01-28T16:02:21.777Z,8.99
2023-01-28T16:05:01.536Z,8.99
2023-01-28T16:07:33.057Z,9.00
2023-01-28T16:10:04.078Z,9.02
2023-01-28T16:12:32.459Z,9.02
2023-01-28T16:15:04.230Z,9.02
2023-01-28T16:17:41.267Z,8.99
2023-01-28T16:20:21.774Z,8.95
2023-01-28T16:22:50.771Z,8.91
2023-01-28T16:25:30.564Z,8.92
2023-01-28T16:28:01.033Z,8.91
2023-01-28T16:30:31.551Z,8.92
2023-01-28T16:33:01.335Z,8.88
2023-01-28T16:35:46.926Z,8.86
2023-01-28T16:38:20.027Z,8.81
2023-01-28T16:40:49.205Z,8.78
2023-01-28T16:43:19.534Z,8.74
2023-01-28T16:45:49.501Z,8.72
2023-01-28T16:48:18.092Z,8.71
2023-01-28T16:50:47.316Z,8.71
2023-01-28T16:53:22.527Z,8.70
2023-01-28T16:55:51.785Z,8.69
2023-01-28T16:58:27.069Z,8.70
2023-01-28T17:00:57.412Z,8.73
2023-01-28T17:03:25.991Z,8.73
2023-01-28T17:05:55.088Z,8.74
2023-01-28T17:08:23.496Z,8.76
2023-01-28T17:10:56.186Z,8.78
2023-01-28T17:13:24.913Z,8.78
2023-01-28T17:15:54.001Z,8.77
2023-01-28T17:18:23.916Z,8.77
2023-01-28T17:20:52.295Z,8.78
2023-01-28T17:23:24.207Z,8.78
2023-01-28T17:25:52.674Z,8.79
2023-01-28T17:28:21.342Z,8.79
2023-01-28T17:30:50.050Z,8.79
2023-01-28T17:33:18.716Z,8.79
2023-01-28T17:35:49.587Z,8.79
2023-01-28T17:38:18.333Z,8.78
2023-01-28T17:40:46.770Z,8.77
2023-01-28T17:43:15.293Z,8.77
2023-01-28T17:45:43.730Z,8.76
2023-01-28T17:48:12.363Z,8.78
2023-01-28T17:50:42.205Z,8.74
2023-01-28T17:53:12.790Z,8.72
2023-01-28T17:55:41.577Z,8.68
2023-01-28T17:58:10.000Z,8.64
2023-01-28T18:00:38.496Z,8.62
2023-01-28T18:03:07.199Z,8.61
2023-01-28T18:05:35.576Z,8.62
2023-01-28T18:08:04.638Z,8.60
2023-01-28T18:10:34.764Z,8.62
2023-01-28T18:13:03.859Z,8.62
2023-01-28T18:15:32.401Z,8.61
2023-01-28T18:18:00.927Z,8.62
2023-01-28T18:20:29.331Z,8.62
2023-01-28T18:22:57.764Z,8.63
2023-01-28T18:25:26.297Z,8.63
2023-01-28T18:27:56.202Z,8.63
2023-01-28T18:30:24.634Z,8.63
2023-01-28T18:32:53.393Z,8.63
2023-01-28T18:35:22.035Z,8.63
2023-01-28T18:37:50.459Z,8.63
2023-01-28T18:40:19.527Z,8.63
2023-01-28T18:42:48.097Z,8.63
2023-01-28T18:45:18.246Z,8.63
2023-01-28T18:47:46.899Z,8.62
2023-01-28T18:50:15.497Z,8.59
2023-01-28T18:52:44.058Z,8.59
2023-01-28T18:55:12.588Z,8.57
2023-01-28T18:57:41.287Z,8.55
2023-01-28T19:00:11.813Z,8.57
2023-01-28T19:02:41.648Z,8.55
2023-01-28T19:05:10.958Z,8.53
2023-01-28T19:07:39.620Z,8.53
2023-01-28T19:10:08.839Z,8.51
2023-01-28T19:12:37.255Z,8.51
2023-01-28T19:15:07.020Z,8.50
2023-01-28T19:17:35.679Z,8.48
2023-01-28T19:20:07.026Z,8.49
2023-01-28T19:22:35.618Z,8.49
2023-01-28T19:25:04.594Z,8.47
2023-01-28T19:27:36.220Z,8.46
2023-01-28T19:30:05.662Z,8.45
2023-01-28T19:32:34.319Z,8.44
2023-01-28T19:35:02.817Z,8.42
2023-01-28T19:37:34.106Z,8.43
2023-01-28T19:40:02.566Z,8.38
2023-01-28T19:42:31.069Z,8.39
2023-01-28T19:44:59.489Z,8.38
2023-01-28T19:47:28.143Z,8.37
2023-01-28T19:49:56.748Z,8.36
2023-01-28T19:52:25.537Z,8.34
2023-01-28T19:54:55.679Z,8.35
2023-01-28T19:57:24.109Z,8.32
2023-01-28T19:59:52.545Z,8.32
2023-01-28T20:02:21.188Z,8.31
2023-01-28T20:05:00.315Z,8.29
2023-01-28T20:07:29.678Z,8.30
2023-01-28T20:09:59.631Z,8.30
2023-01-28T20:12:28.856Z,8.30
2023-01-28T20:14:57.379Z,8.28
2023-01-28T20:17:28.532Z,8.27
2023-01-28T20:19:57.093Z,8.26
2023-01-28T20:22:25.489Z,8.24
2023-01-28T20:24:57.230Z,8.24
2023-01-28T20:27:27.987Z,8.24
2023-01-28T20:29:56.487Z,8.22
2023-01-28T20:32:25.290Z,8.21
2023-01-28T20:34:54.372Z,8.20
2023-01-28T20:37:23.109Z,8.19
2023-01-28T20:39:52.131Z,8.18
2023-01-28T20:42:20.850Z,8.19
2023-01-28T20:44:51.657Z,8.17
2023-01-28T20:47:20.067Z,8.16
2023-01-28T20:49:48.588Z,8.15
2023-01-28T20:52:17.116Z,8.15
2023-01-28T20:54:45.585Z,8.14
2023-01-28T20:57:14.171Z,8.13
2023-01-28T20:59:42.560Z,8.10
2023-01-28T21:02:15.468Z,8.12
2023-01-28T21:04:44.006Z,8.12
2023-01-28T21:07:13.435Z,8.10
2023-01-28T21:09:42.202Z,8.10
2023-01-28T21:12:10.972Z,8.09
2023-01-28T21:14:39.379Z,8.07
2023-01-28T21:17:07.932Z,8.07
2023-01-28T21:19:37.788Z,8.07
2023-01-28T21:22:07.276Z,8.04
2023-01-28T21:24:35.845Z,8.04
2023-01-28T21:27:04.510Z,8.03
2023-01-28T21:29:33.263Z,8.01
2023-01-28T21:32:01.698Z,8.00
2023-01-28T21:34:30.270Z,7.98
2023-01-28T21:37:00.513Z,7.97
2023-01-28T21:39:29.016Z,7.97
2023-01-28T21:41:57.475Z,7.96
2023-01-28T21:44:25.972Z,7.95
2023-01-28T21:46:54.367Z,7.96
2023-01-28T21:49:22.885Z,7.94
2023-01-28T21:51:51.388Z,7.93
2023-01-28T21:54:21.354Z,7.93
2023-01-28T21:56:51.486Z,7.92
2023-01-28T21:59:32.508Z,7.91
2023-01-28T22:02:03.894Z,7.90
2023-01-28T22:04:36.065Z,7.87
2023-01-28T22:07:06.462Z,7.88
2023-01-28T22:09:37.291Z,7.86
2023-01-28T22:12:08.233Z,7.85
2023-01-28T22:14:36.888Z,7.85
2023-01-28T22:17:09.095Z,7.84
2023-01-28T22:19:37.756Z,7.82
2023-01-28T22:22:06.927Z,7.82
2023-01-28T22:24:36.894Z,7.79
2023-01-28T22:27:05.572Z,7.78
2023-01-28T22:29:33.997Z,7.77
2023-01-28T22:32:04.101Z,7.77
2023-01-28T22:34:32.579Z,7.75
2023-01-28T22:37:01.079Z,7.75
2023-01-28T22:39:29.829Z,7.74
2023-01-28T22:42:00.184Z,7.74
2023-01-28T22:44:31.267Z,7.73
2023-01-28T22:46:59.908Z,7.72
2023-01-28T22:49:28.513Z,7.72
2023-01-28T22:51:56.964Z,7.71
2023-01-28T22:54:25.366Z,7.72
2023-01-28T22:56:53.907Z,7.70
2023-01-28T22:59:23.790Z,7.71
2023-01-28T23:01:52.741Z,7.69
2023-01-28T23:04:21.575Z,7.68
2023-01-28T23:06:50.032Z,7.68
2023-01-28T23:09:19.098Z,7.66
2023-01-28T23:11:47.491Z,7.67
2023-01-28T23:14:33.783Z,7.65
2023-01-28T23:17:21.812Z,7.65
2023-01-28T23:20:07.995Z,7.60
2023-01-28T23:22:54.081Z,7.60
2023-01-28T23:25:25.245Z,7.58
2023-01-28T23:27:53.632Z,7.58
2023-01-28T23:30:25.235Z,7.58
2023-01-28T23:32:58.572Z,7.58
2023-01-28T23:35:27.965Z,7.58
2023-01-28T23:37:56.882Z,7.56
2023-01-28T23:40:27.198Z,7.55
2023-01-28T23:42:56.665Z,7.55
2023-01-28T23:45:25.161Z,7.53
2023-01-28T23:47:54.988Z,7.54
2023-01-28T23:50:23.880Z,7.53
2023-01-28T23:52:52.275Z,7.52
2023-01-28T23:55:20.853Z,7.52
2023-01-28T23:57:49.290Z,7.52
